Time;durP1;ratioP1;P1;durP2;ratioP2;P2;SDS_P1;SDS_P2;PMS_P1;PMS_P2;Temp;Humidity;BMP_temperature;BMP_pressure;BME280_temperature;BME280_humidity;BME280_pressure;Samples;Min_cycle;Max_cycle;Signal;HPM_P1;HPM_P2
2021/10/25 00:00:16;;;;;;;7.60;6.00;;;9.10;77.90;;;;;;5092975;28;20463;-71
2021/10/25 00:02:43;;;;;;;8.43;6.37;;;9.10;78.30;;;;;;5093095;28;20451;-71
2021/10/25 00:05:10;;;;;;;8.13;6.10;;;9.20;78.90;;;;;;5093634;28;20455;-72
2021/10/25 00:07:38;;;;;;;10.00;6.80;;;9.20;80.10;;;;;;5095612;28;20466;-72
2021/10/25 00:10:06;;;;;;;7.53;6.30;;;9.20;80.90;;;;;;5097984;28;20472;-71
2021/10/25 00:12:33;;;;;;;7.50;6.70;;;9.30;81.80;;;;;;5097465;28;20479;-72
2021/10/25 00:15:00;;;;;;;9.03;6.10;;;9.30;82.40;;;;;;5097027;28;20451;-72
2021/10/25 00:17:27;;;;;;;9.40;7.27;;;9.30;82.80;;;;;;5096828;28;20443;-72
2021/10/25 00:19:54;;;;;;;10.03;7.03;;;9.30;83.20;;;;;;5096581;28;20472;-72
2021/10/25 00:22:21;;;;;;;6.83;5.77;;;9.30;83.40;;;;;;5096526;28;20455;-72
2021/10/25 00:24:49;;;;;;;6.37;5.50;;;9.30;83.40;;;;;;5097069;28;20536;-72
2021/10/25 00:27:16;;;;;;;8.60;5.90;;;9.40;83.50;;;;;;5097338;28;20459;-72
2021/10/25 00:29:43;;;;;;;8.50;5.83;;;9.40;83.10;;;;;;5096760;28;20457;-72
2021/10/25 00:32:10;;;;;;;8.17;6.00;;;9.40;82.30;;;;;;5096405;28;20495;-72
2021/10/25 00:34:36;;;;;;;6.87;5.20;;;9.30;81.30;;;;;;5095979;28;20942;-72
2021/10/25 00:37:04;;;;;;;7.20;5.83;;;9.30;80.40;;;;;;5095830;28;20452;-72
2021/10/25 00:39:31;;;;;;;7.13;5.80;;;9.30;79.80;;;;;;5096010;28;20527;-72
2021/10/25 00:42:00;;;;;;;5.97;5.47;;;9.20;79.50;;;;;;5095685;28;20979;-72
2021/10/25 00:44:28;;;;;;;5.50;5.00;;;9.20;79.50;;;;;;5095880;28;20447;-72
2021/10/25 00:46:55;;;;;;;7.20;5.73;;;9.20;79.90;;;;;;5095930;28;20838;-72
2021/10/25 00:49:21;;;;;;;8.03;5.20;;;9.20;80.00;;;;;;5095705;28;20457;-71
2021/10/25 00:51:50;;;;;;;8.10;5.57;;;9.10;79.50;;;;;;5095612;28;20475;-72
2021/10/25 00:54:17;;;;;;;7.83;5.83;;;9.10;79.50;;;;;;5095638;28;20455;-72
2021/10/25 00:56:46;;;;;;;5.63;5.13;;;9.10;79.80;;;;;;5095754;28;20451;-72
2021/10/25 00:59:15;;;;;;;7.87;6.53;;;9.10;80.30;;;;;;5095610;28;20428;-72
2021/10/25 01:01:42;;;;;;;9.33;5.40;;;9.10;80.60;;;;;;5095780;28;20444;-72
2021/10/25 01:04:10;;;;;;;6.37;5.60;;;9.10;80.80;;;;;;5095432;28;20460;-72
2021/10/25 01:06:38;;;;;;;7.27;5.70;;;9.10;81.30;;;;;;5095429;28;20443;-72
2021/10/25 01:09:06;;;;;;;6.30;5.70;;;9.10;83.00;;;;;;5095374;28;20452;-72
2021/10/25 01:11:34;;;;;;;8.57;6.67;;;9.10;83.00;;;;;;5095175;28;20492;-72
2021/10/25 01:14:02;;;;;;;6.77;5.90;;;9.10;83.60;;;;;;5095412;28;20456;-72
2021/10/25 01:16:31;;;;;;;7.30;5.20;;;9.10;83.90;;;;;;5095637;28;20463;-72
2021/10/25 01:18:58;;;;;;;10.30;5.67;;;9.10;84.20;;;;;;5095333;28;20455;-72
2021/10/25 01:21:26;;;;;;;5.93;5.37;;;9.10;84.50;;;;;;5095133;28;20491;-72
2021/10/25 01:23:54;;;;;;;9.80;5.50;;;9.10;84.50;;;;;;5094840;28;20949;-72
2021/10/25 01:26:22;;;;;;;5.13;4.47;;;9.10;84.50;;;;;;5095048;28;20447;-72
2021/10/25 01:28:49;;;;;;;6.07;5.33;;;9.10;84.70;;;;;;5094975;28;20439;-72
2021/10/25 01:31:16;;;;;;;5.97;5.33;;;9.10;84.80;;;;;;5094780;28;20487;-72
2021/10/25 01:33:45;;;;;;;6.43;5.37;;;9.10;84.80;;;;;;5095716;28;20455;-72
2021/10/25 01:36:12;;;;;;;6.40;5.37;;;9.20;85.00;;;;;;5094509;28;20459;-73
2021/10/25 01:38:41;;;;;;;6.57;4.63;;;9.20;84.90;;;;;;5094802;28;20435;-73
2021/10/25 01:41:08;;;;;;;7.53;5.10;;;9.20;84.80;;;;;;5094623;28;20467;-72
2021/10/25 01:43:35;;;;;;;6.90;4.93;;;9.20;84.60;;;;;;5094760;28;20440;-72
2021/10/25 01:46:03;;;;;;;5.47;4.97;;;9.20;84.50;;;;;;5094728;28;20478;-72
2021/10/25 01:48:29;;;;;;;6.23;4.77;;;9.20;84.30;;;;;;5094566;28;20452;-72
2021/10/25 01:50:56;;;;;;;6.70;5.50;;;9.30;84.50;;;;;;5094431;28;20814;-72
2021/10/25 01:53:23;;;;;;;8.60;5.07;;;9.30;84.40;;;;;;5094462;28;20448;-72
2021/10/25 01:55:59;;;;;;;4.87;4.40;;;9.30;84.40;;;;;;5094420;28;20455;-73
2021/10/25 01:58:26;;;;;;;8.90;5.03;;;9.30;84.40;;;;;;5094496;28;20458;-73
2021/10/25 02:00:53;;;;;;;6.13;5.10;;;9.30;84.20;;;;;;5094008;28;20985;-72
2021/10/25 02:03:20;;;;;;;5.20;4.43;;;9.30;84.00;;;;;;5094281;28;20448;-72
2021/10/25 02:05:47;;;;;;;6.03;4.90;;;9.30;83.70;;;;;;5093911;28;20929;-74
2021/10/25 02:08:14;;;;;;;6.83;4.67;;;9.30;83.30;;;;;;5093989;28;20432;-73
2021/10/25 02:10:42;;;;;;;6.17;5.60;;;9.30;83.20;;;;;;5094257;28;20561;-72
2021/10/25 02:13:15;;;;;;;5.40;4.57;;;9.30;83.00;;;;;;5094073;28;20839;-72
2021/10/25 02:15:43;;;;;;;5.63;5.10;;;9.30;82.80;;;;;;5094344;28;20444;-72
2021/10/25 02:18:11;;;;;;;6.23;4.60;;;9.30;82.70;;;;;;5094200;28;20448;-72
2021/10/25 02:20:38;;;;;;;7.20;4.70;;;9.30;82.50;;;;;;5093944;28;20468;-72
2021/10/25 02:23:04;;;;;;;7.03;5.00;;;9.30;82.40;;;;;;5093901;28;20455;-72
2021/10/25 02:25:31;;;;;;;9.37;4.30;;;9.30;82.40;;;;;;5094023;28;20444;-72
2021/10/25 02:27:58;;;;;;;8.97;4.90;;;9.30;83.00;;;;;;5094436;28;20451;-72
2021/10/25 02:30:27;;;;;;;5.00;4.37;;;9.30;83.20;;;;;;5092907;28;20980;-72
2021/10/25 02:32:53;;;;;;;6.03;5.10;;;9.20;83.40;;;;;;5093463;28;21062;-74
2021/10/25 02:35:20;;;;;;;6.17;4.90;;;9.20;83.80;;;;;;5093852;28;20471;-73
2021/10/25 02:37:47;;;;;;;5.87;4.80;;;9.20;84.00;;;;;;5093646;28;20466;-73
2021/10/25 02:40:13;;;;;;;6.13;4.20;;;9.20;84.30;;;;;;5093764;28;20830;-73
2021/10/25 02:42:40;;;;;;;7.10;5.10;;;9.20;84.50;;;;;;5093759;28;20450;-72
2021/10/25 02:45:08;;;;;;;8.37;4.43;;;9.10;84.70;;;;;;5093681;28;20439;-72
2021/10/25 02:47:36;;;;;;;6.57;4.60;;;9.10;85.10;;;;;;5093993;28;20455;-72
2021/10/25 02:50:03;;;;;;;4.53;4.13;;;9.10;85.30;;;;;;5093326;28;21018;-72
2021/10/25 02:52:30;;;;;;;5.87;4.40;;;9.10;85.50;;;;;;5093477;28;20488;-72
2021/10/25 02:54:57;;;;;;;14.60;4.63;;;9.10;85.60;;;;;;5093784;28;20792;-72
2021/10/25 02:57:24;;;;;;;5.07;4.53;;;9.20;85.40;;;;;;5093910;28;20450;-73
2021/10/25 02:59:51;;;;;;;4.90;4.40;;;9.20;85.60;;;;;;5093594;28;20495;-72
2021/10/25 03:02:18;;;;;;;5.93;4.13;;;9.20;85.60;;;;;;5093678;28;20809;-73
2021/10/25 03:04:46;;;;;;;7.77;4.83;;;9.20;85.50;;;;;;5093700;28;20540;-72
2021/10/25 03:07:13;;;;;;;6.97;4.40;;;9.20;85.80;;;;;;5093327;28;20949;-72
2021/10/25 03:09:40;;;;;;;4.60;4.00;;;9.20;85.80;;;;;;5093459;28;20467;-72
2021/10/25 03:12:07;;;;;;;5.23;4.37;;;9.10;85.80;;;;;;5093553;28;20567;-73
2021/10/25 03:14:34;;;;;;;5.10;4.20;;;9.10;85.70;;;;;;5093640;28;20789;-72
2021/10/25 03:17:01;;;;;;;10.57;4.63;;;9.20;85.70;;;;;;5093406;28;20545;-72
2021/10/25 03:19:28;;;;;;;6.20;4.20;;;9.20;85.80;;;;;;5093323;28;20443;-71
2021/10/25 03:21:56;;;;;;;7.50;4.70;;;9.10;85.80;;;;;;5093711;28;20446;-72
2021/10/25 03:24:23;;;;;;;6.17;4.53;;;9.10;86.10;;;;;;5093480;28;20451;-72
2021/10/25 03:26:50;;;;;;;10.27;5.63;;;9.10;85.90;;;;;;5093441;28;20971;-72
2021/10/25 03:29:17;;;;;;;5.80;5.20;;;9.20;86.00;;;;;;5093463;28;20522;-72
2021/10/25 03:31:43;;;;;;;5.63;4.53;;;9.20;86.00;;;;;;5093574;28;20451;-73
2021/10/25 03:34:11;;;;;;;9.23;5.57;;;9.10;85.70;;;;;;5094447;28;20769;-72
2021/10/25 03:36:40;;;;;;;5.83;4.93;;;9.10;85.70;;;;;;5093507;28;20462;-73
2021/10/25 03:39:08;;;;;;;7.20;5.20;;;9.20;85.80;;;;;;5093387;28;20447;-72
2021/10/25 03:41:37;;;;;;;8.30;6.23;;;9.20;85.70;;;;;;5095224;28;20467;-72
2021/10/25 03:44:09;;;;;;;8.73;4.87;;;9.20;85.70;;;;;;5097085;28;20482;-72
2021/10/25 03:46:41;;;;;;;5.53;5.03;;;9.20;85.50;;;;;;5097335;28;20438;-72
2021/10/25 03:49:11;;;;;;;9.30;5.73;;;9.20;85.20;;;;;;5097493;28;20435;-72
2021/10/25 03:51:40;;;;;;;9.07;5.60;;;9.20;85.00;;;;;;5097291;28;20472;-72
2021/10/25 03:54:23;;;;;;;9.10;6.90;;;9.20;85.60;;;;;;5096794;28;20486;-72
2021/10/25 03:57:12;;;;;;;7.60;6.83;;;9.20;84.70;;;;;;5097058;28;20493;-73
2021/10/25 03:59:53;;;;;;;7.33;5.90;;;9.20;84.30;;;;;;5096707;28;20556;-72
2021/10/25 04:02:33;;;;;;;8.30;6.80;;;9.10;83.90;;;;;;5096775;28;20431;-72
2021/10/25 04:13:41;;;;;;;6.50;5.13;;;9.00;83.00;;;;;;5096933;28;20493;-72
2021/10/25 04:27:21;;;;;;;6.07;4.80;;;8.90;82.90;;;;;;5096527;28;20484;-72
2021/10/25 04:29:49;;;;;;;7.97;5.67;;;8.90;83.10;;;;;;5096191;28;20827;-71
2021/10/25 04:32:16;;;;;;;6.93;5.93;;;8.90;83.60;;;;;;5096617;28;20533;-71
2021/10/25 04:34:42;;;;;;;7.37;5.80;;;8.90;83.90;;;;;;5095997;28;20459;-71
2021/10/25 04:37:09;;;;;;;6.67;5.57;;;8.90;84.20;;;;;;5095681;28;20463;-71
2021/10/25 04:39:36;;;;;;;7.55;6.00;;;8.80;84.10;;;;;;5095008;28;20441;-71
2021/10/25 04:42:03;;;;;;;8.47;6.37;;;8.90;84.20;;;;;;5095578;28;20687;-71
2021/10/25 04:44:31;;;;;;;6.30;5.70;;;8.90;84.00;;;;;;5096482;28;20451;-72
2021/10/25 04:46:58;;;;;;;8.93;6.80;;;8.90;83.90;;;;;;5096468;28;20893;-72
2021/10/25 04:49:25;;;;;;;8.53;6.33;;;8.90;83.80;;;;;;5100974;28;20443;-72
2021/10/25 04:51:51;;;;;;;7.87;7.03;;;8.90;83.70;;;;;;5096171;28;20470;-73
2021/10/25 04:54:18;;;;;;;7.93;7.10;;;8.80;83.60;;;;;;5095655;28;20455;-73
2021/10/25 04:56:45;;;;;;;8.47;6.20;;;8.80;83.70;;;;;;5096364;28;20475;-73
2021/10/25 04:59:12;;;;;;;8.67;6.53;;;8.80;83.70;;;;;;5096192;28;20432;-72
2021/10/25 05:01:40;;;;;;;10.00;6.00;;;8.80;83.70;;;;;;5096060;28;21015;-73
2021/10/25 05:04:07;;;;;;;7.67;6.40;;;8.70;83.60;;;;;;5095739;28;20442;-72
2021/10/25 05:06:34;;;;;;;7.70;6.20;;;8.70;83.70;;;;;;5096180;28;20448;-72
2021/10/25 05:09:00;;;;;;;6.87;6.17;;;8.70;83.60;;;;;;5096035;28;20455;-72
2021/10/25 05:11:27;;;;;;;11.30;6.70;;;8.70;83.80;;;;;;5095937;28;20467;-73
2021/10/25 05:13:54;;;;;;;7.30;5.10;;;8.70;83.80;;;;;;5095674;28;20464;-72
2021/10/25 05:16:21;;;;;;;8.37;4.70;;;8.70;83.90;;;;;;5096666;28;20450;-72
2021/10/25 05:18:49;;;;;;;6.00;5.17;;;8.70;84.60;;;;;;5096464;28;20851;-72
2021/10/25 05:21:16;;;;;;;5.87;4.80;;;8.60;85.90;;;;;;5095836;28;20468;-72
2021/10/25 05:23:43;;;;;;;7.00;5.00;;;8.60;85.60;;;;;;5095714;28;20444;-72
2021/10/25 05:26:10;;;;;;;4.97;4.40;;;8.50;86.00;;;;;;5096263;28;20467;-72
2021/10/25 05:28:37;;;;;;;6.10;4.60;;;8.50;86.40;;;;;;5095425;28;20455;-72
2021/10/25 05:31:05;;;;;;;6.30;4.50;;;8.40;86.80;;;;;;5094639;28;20547;-72
2021/10/25 05:33:32;;;;;;;8.60;5.60;;;8.40;87.00;;;;;;5094595;28;21023;-72
2021/10/25 05:36:01;;;;;;;7.90;4.90;;;8.40;87.10;;;;;;5095080;28;20431;-71
2021/10/25 05:38:27;;;;;;;7.77;4.97;;;8.50;87.10;;;;;;5094887;28;20920;-71
2021/10/25 05:40:54;;;;;;;7.33;4.87;;;8.50;86.90;;;;;;5094717;28;20463;-71
2021/10/25 05:43:21;;;;;;;5.40;4.70;;;8.40;86.80;;;;;;5094724;28;20810;-72
2021/10/25 05:45:48;;;;;;;6.83;4.37;;;8.40;86.70;;;;;;5094677;28;20504;-72
2021/10/25 05:48:15;;;;;;;5.60;4.30;;;8.40;87.60;;;;;;5094907;28;20530;-72
2021/10/25 05:50:42;;;;;;;5.40;4.93;;;8.40;86.70;;;;;;5094240;28;20484;-71
2021/10/25 05:53:11;;;;;;;6.33;4.23;;;8.40;86.80;;;;;;5095127;28;20479;-71
2021/10/25 05:55:39;;;;;;;5.53;4.23;;;8.40;86.80;;;;;;5094320;28;20933;-71
2021/10/25 05:58:10;;;;;;;8.80;4.17;;;8.30;87.10;;;;;;5094656;28;20451;-71
2021/10/25 06:00:39;;;;;;;4.60;4.03;;;8.30;87.20;;;;;;5094384;28;20537;-71
2021/10/25 06:03:06;;;;;;;4.50;3.50;;;8.30;87.10;;;;;;5094487;28;20432;-71
2021/10/25 06:05:33;;;;;;;8.10;4.47;;;8.30;87.30;;;;;;5093542;28;20489;-72
2021/10/25 06:08:00;;;;;;;6.77;4.97;;;8.30;87.30;;;;;;5094644;28;20428;-71
2021/10/25 06:10:32;;;;;;;5.80;4.67;;;8.30;87.10;;;;;;5094167;28;20909;-71
2021/10/25 06:13:02;;;;;;;8.83;4.13;;;8.30;86.80;;;;;;5093989;28;20833;-71
2021/10/25 06:15:37;;;;;;;5.77;4.60;;;8.20;86.70;;;;;;5094298;28;20442;-71
2021/10/25 06:18:07;;;;;;;5.97;4.50;;;8.20;87.00;;;;;;5094296;28;20432;-71
2021/10/25 06:20:37;;;;;;;7.43;5.57;;;8.20;87.30;;;;;;5095169;28;20567;-71
2021/10/25 06:23:09;;;;;;;6.83;4.90;;;8.20;87.30;;;;;;5094244;28;20469;-72
2021/10/25 06:25:38;;;;;;;5.53;4.40;;;8.20;87.30;;;;;;5094122;28;20466;-72
2021/10/25 06:28:05;;;;;;;4.83;4.43;;;8.20;87.40;;;;;;5094249;28;20455;-72
2021/10/25 06:30:33;;;;;;;5.57;4.53;;;8.20;87.20;;;;;;5094080;28;20467;-71
2021/10/25 06:33:02;;;;;;;8.20;4.77;;;8.30;87.10;;;;;;5094403;28;20475;-71
2021/10/25 06:35:30;;;;;;;5.70;4.87;;;8.30;86.90;;;;;;5095626;28;20448;-71
2021/10/25 06:38:01;;;;;;;14.43;5.07;;;8.30;86.80;;;;;;5094901;28;21003;-71
2021/10/25 06:40:28;;;;;;;11.40;5.17;;;8.30;86.60;;;;;;5098305;28;20550;-71
2021/10/25 06:42:57;;;;;;;7.43;4.93;;;8.30;86.60;;;;;;5104732;28;20531;-71
2021/10/25 06:45:24;;;;;;;5.63;4.53;;;8.40;86.50;;;;;;5094738;28;20439;-71
2021/10/25 06:47:52;;;;;;;5.70;4.80;;;8.40;86.40;;;;;;5094527;28;20481;-71
2021/10/25 06:50:21;;;;;;;7.13;5.47;;;8.40;86.30;;;;;;5094155;28;20988;-71
2021/10/25 06:52:49;;;;;;;8.70;5.00;;;8.50;86.10;;;;;;5093999;28;20484;-72
2021/10/25 06:55:15;;;;;;;8.43;5.47;;;8.50;85.80;;;;;;5093459;28;20902;-71
2021/10/25 06:57:42;;;;;;;6.70;4.97;;;8.50;85.80;;;;;;5093619;28;20444;-71
2021/10/25 07:00:13;;;;;;;7.67;5.40;;;8.50;85.60;;;;;;5093195;28;21026;-71
2021/10/25 07:02:39;;;;;;;6.10;5.47;;;8.50;85.50;;;;;;5093232;28;20916;-71
2021/10/25 07:05:07;;;;;;;9.40;5.20;;;8.50;85.30;;;;;;5093433;28;20446;-71
2021/10/25 07:07:35;;;;;;;8.50;5.57;;;8.50;85.10;;;;;;5095745;28;20475;-71
2021/10/25 07:10:03;;;;;;;5.60;5.00;;;8.50;85.10;;;;;;5093635;28;20554;-71
2021/10/25 07:12:30;;;;;;;5.90;4.70;;;8.60;85.30;;;;;;5093076;28;20811;-71
2021/10/25 07:14:58;;;;;;;6.80;5.60;;;8.50;85.40;;;;;;5093438;28;20440;-71
2021/10/25 07:17:32;;;;;;;5.43;4.90;;;8.60;85.70;;;;;;5096967;28;20496;-72
2021/10/25 07:20:13;;;;;;;12.27;6.00;;;8.60;85.80;;;;;;5097846;28;20517;-72
2021/10/25 07:23:08;;;;;;;10.07;6.40;;;8.60;86.00;;;;;;5097522;28;20454;-71
2021/10/25 08:07:00;;;;;;;6.03;5.10;;;9.00;88.50;;;;;;5055605;28;20477;-72
2021/10/25 08:09:38;;;;;;;9.53;5.80;;;9.10;88.10;;;;;;5096597;28;20445;-71
2021/10/25 08:12:08;;;;;;;5.80;5.00;;;9.10;87.90;;;;;;5096587;28;20431;-71
2021/10/25 08:14:39;;;;;;;8.87;5.50;;;9.20;87.60;;;;;;5097056;28;20482;-71
2021/10/25 08:17:08;;;;;;;6.07;5.47;;;9.20;87.40;;;;;;5097289;28;20439;-71
2021/10/25 08:19:34;;;;;;;5.77;4.50;;;9.20;87.60;;;;;;5096362;28;20458;-71
2021/10/25 08:22:05;;;;;;;5.60;5.10;;;9.30;87.70;;;;;;5096470;28;20449;-71
2021/10/25 08:24:34;;;;;;;7.47;4.90;;;9.40;87.60;;;;;;5096000;28;20872;-71
2021/10/25 08:27:03;;;;;;;7.40;5.40;;;9.40;87.20;;;;;;5095311;28;20451;-71
2021/10/25 08:29:30;;;;;;;5.27;4.73;;;9.50;87.10;;;;;;5095694;28;20462;-71
2021/10/25 08:32:07;;;;;;;8.87;4.53;;;9.70;87.00;;;;;;5096132;28;20459;-71
2021/10/25 08:34:43;;;;;;;5.40;4.90;;;9.70;86.50;;;;;;5095818;28;20934;-72
2021/10/25 08:39:59;;;;;;;5.50;4.67;;;9.80;86.30;;;;;;5095796;28;20470;-71
2021/10/25 08:42:28;;;;;;;8.10;4.73;;;9.90;86.20;;;;;;5095988;28;20439;-71
2021/10/25 08:44:58;;;;;;;6.73;4.30;;;10.00;84.80;;;;;;5095918;28;20470;-71
2021/10/25 08:47:29;;;;;;;6.97;4.37;;;10.10;85.00;;;;;;5095975;28;20432;-71
2021/10/25 08:49:56;;;;;;;6.63;3.97;;;10.20;84.80;;;;;;5095952;28;20467;-71
2021/10/25 08:52:26;;;;;;;8.20;4.20;;;10.40;83.80;;;;;;5095765;28;20454;-71
2021/10/25 08:54:53;;;;;;;5.53;4.50;;;10.50;83.40;;;;;;5096138;28;21015;-71
2021/10/25 08:57:21;;;;;;;5.37;3.83;;;10.50;82.90;;;;;;5095394;28;20451;-71
2021/10/25 09:00:02;;;;;;;6.27;4.03;;;10.60;82.80;;;;;;5095498;28;20463;-71
2021/10/25 09:02:34;;;;;;;6.90;4.17;;;10.70;82.50;;;;;;5095574;28;20432;-71
2021/10/25 09:05:04;;;;;;;3.60;3.30;;;10.90;81.70;;;;;;5095508;28;20497;-71
2021/10/25 09:07:34;;;;;;;4.20;3.80;;;10.90;80.80;;;;;;5095456;28;20501;-71
2021/10/25 09:10:05;;;;;;;5.63;4.17;;;11.10;80.40;;;;;;5095354;28;20478;-71
2021/10/25 09:12:35;;;;;;;5.40;3.70;;;11.30;80.10;;;;;;5095370;28;20447;-71
2021/10/25 09:15:02;;;;;;;4.17;3.60;;;11.50;78.70;;;;;;5094876;28;20476;-71
2021/10/25 09:17:38;;;;;;;5.23;4.10;;;11.70;78.20;;;;;;5095992;28;20478;-71
2021/10/25 09:20:07;;;;;;;6.53;4.47;;;11.90;78.40;;;;;;5095146;28;20455;-71
2021/10/25 09:22:36;;;;;;;4.40;3.60;;;12.10;77.70;;;;;;5095399;28;20444;-72
2021/10/25 09:25:02;;;;;;;5.07;4.00;;;12.30;77.30;;;;;;5096635;28;20451;-72
2021/10/25 09:27:31;;;;;;;4.40;4.00;;;12.60;76.90;;;;;;5096228;28;20815;-72
2021/10/25 09:30:10;;;;;;;4.87;3.97;;;12.90;76.20;;;;;;5094622;28;20464;-71
2021/10/25 09:32:39;;;;;;;4.47;3.57;;;13.00;74.30;;;;;;5094974;28;20438;-71
2021/10/25 09:35:15;;;;;;;4.77;3.50;;;13.20;73.10;;;;;;5094734;28;20479;-71
2021/10/25 09:37:48;;;;;;;7.03;4.77;;;13.30;72.00;;;;;;5094499;28;20464;-71
2021/10/25 09:40:28;;;;;;;6.90;3.60;;;13.40;72.00;;;;;;5094623;28;20503;-71
2021/10/25 09:43:07;;;;;;;5.27;3.47;;;13.50;71.70;;;;;;5095018;28;20434;-71
2021/10/25 09:45:57;;;;;;;3.80;3.10;;;13.70;71.60;;;;;;5094726;28;20430;-72
2021/10/25 09:51:09;;;;;;;9.20;4.87;;;14.10;70.50;;;;;;5094397;28;20448;-71
2021/10/25 09:53:40;;;;;;;5.57;4.90;;;14.30;69.50;;;;;;5094433;28;20479;-71
2021/10/25 09:56:10;;;;;;;9.03;4.90;;;14.50;68.20;;;;;;5094556;28;20436;-71
2021/10/25 09:58:48;;;;;;;4.30;3.90;;;14.50;67.90;;;;;;5094418;28;20481;-71
2021/10/25 10:01:20;;;;;;;6.80;4.60;;;14.60;67.20;;;;;;5094391;28;20459;-71
2021/10/25 10:03:48;;;;;;;4.63;3.87;;;14.80;67.50;;;;;;5094395;28;20515;-71
2021/10/25 10:06:16;;;;;;;7.53;4.70;;;14.90;66.00;;;;;;5094241;28;20813;-71
2021/10/25 10:08:44;;;;;;;4.67;4.00;;;14.90;66.60;;;;;;5094282;28;20459;-71
2021/10/25 10:11:12;;;;;;;4.43;3.30;;;14.90;66.20;;;;;;5094415;28;20460;-71
2021/10/25 10:13:41;;;;;;;4.70;4.10;;;15.00;66.10;;;;;;5094079;28;20480;-71
2021/10/25 10:16:09;;;;;;;7.17;3.80;;;15.20;66.20;;;;;;5094108;28;20440;-71
2021/10/25 10:18:39;;;;;;;4.37;3.53;;;15.30;65.90;;;;;;5093796;28;20937;-71
2021/10/25 10:21:08;;;;;;;5.03;3.40;;;15.40;65.40;;;;;;5094028;28;20464;-71
2021/10/25 10:23:36;;;;;;;4.07;3.60;;;15.50;65.30;;;;;;5093983;28;20447;-71
2021/10/25 10:26:11;;;;;;;4.27;3.83;;;15.60;65.60;;;;;;5094292;28;20442;-71
2021/10/25 10:28:40;;;;;;;7.07;3.70;;;15.80;64.10;;;;;;5093669;28;20424;-71
2021/10/25 10:31:10;;;;;;;5.83;3.97;;;15.90;63.40;;;;;;5093578;28;20468;-71
2021/10/25 10:33:40;;;;;;;5.23;3.70;;;16.10;62.80;;;;;;5093488;28;20810;-72
2021/10/25 10:36:15;;;;;;;5.90;3.47;;;16.30;62.60;;;;;;5093750;28;20870;-72
2021/10/25 10:38:54;;;;;;;5.57;3.43;;;16.40;61.50;;;;;;5093793;28;20863;-72
2021/10/25 10:41:34;;;;;;;3.90;3.40;;;16.40;60.40;;;;;;5093795;28;20555;-72
2021/10/25 10:44:05;;;;;;;4.63;3.27;;;16.40;60.60;;;;;;5094024;28;20428;-72
2021/10/25 10:46:43;;;;;;;3.30;3.00;;;16.50;60.60;;;;;;5093401;28;20443;-72
2021/10/25 10:49:21;;;;;;;6.53;3.60;;;16.60;60.20;;;;;;5093917;28;20483;-72
2021/10/25 10:52:23;;;;;;;4.60;3.60;;;16.70;60.40;;;;;;5093108;28;20501;-71
2021/10/25 10:54:59;;;;;;;3.67;3.30;;;16.70;60.70;;;;;;5093523;28;20489;-72
2021/10/25 10:57:45;;;;;;;4.63;3.53;;;16.70;59.70;;;;;;5093712;28;20436;-72
2021/10/25 11:00:20;;;;;;;5.27;3.73;;;16.70;59.50;;;;;;5093957;28;20802;-72
2021/10/25 11:02:51;;;;;;;5.40;4.10;;;16.70;59.50;;;;;;5093644;28;20434;-72
2021/10/25 11:05:28;;;;;;;4.70;3.70;;;16.70;59.90;;;;;;5093410;28;20530;-72
2021/10/25 11:08:04;;;;;;;4.80;3.03;;;16.80;59.70;;;;;;5093583;28;20436;-72
2021/10/25 11:10:32;;;;;;;4.10;3.43;;;16.90;59.70;;;;;;5093208;28;20467;-72
2021/10/25 11:13:05;;;;;;;3.73;2.73;;;17.00;59.30;;;;;;5093308;28;20804;-72
2021/10/25 11:15:37;;;;;;;4.07;3.10;;;17.00;59.40;;;;;;5093270;28;20513;-72
2021/10/25 11:18:04;;;;;;;6.90;3.53;;;17.00;59.00;;;;;;5093267;28;20437;-72
2021/10/25 11:20:32;;;;;;;3.73;3.00;;;17.10;59.70;;;;;;5092753;28;20977;-73
2021/10/25 11:23:07;;;;;;;6.90;3.00;;;17.20;60.30;;;;;;5093898;28;20448;-73
2021/10/25 11:25:43;;;;;;;3.00;2.47;;;17.20;59.30;;;;;;5093114;28;20435;-73
2021/10/25 11:28:15;;;;;;;6.77;2.77;;;17.30;59.00;;;;;;5093365;28;20843;-72
2021/10/25 11:30:42;;;;;;;4.40;2.60;;;17.40;58.60;;;;;;5093122;28;20471;-72
2021/10/25 11:33:09;;;;;;;7.00;4.30;;;17.40;58.70;;;;;;5092981;28;20937;-72
2021/10/25 11:35:45;;;;;;;5.53;3.50;;;17.50;58.60;;;;;;5093135;28;20567;-72
2021/10/25 11:38:14;;;;;;;5.03;2.80;;;17.50;58.90;;;;;;5093245;28;20500;-72
2021/10/25 11:40:40;;;;;;;4.83;3.00;;;17.60;59.30;;;;;;5092875;28;20467;-72
2021/10/25 11:43:07;;;;;;;3.57;2.67;;;17.70;59.30;;;;;;5093074;28;20452;-72
2021/10/25 11:45:36;;;;;;;3.33;2.33;;;17.80;58.80;;;;;;5093505;28;20440;-72
2021/10/25 11:48:03;;;;;;;3.53;2.90;;;17.80;59.00;;;;;;5093193;28;20444;-72
2021/10/25 11:50:31;;;;;;;4.00;2.97;;;18.00;59.20;;;;;;5093252;28;20468;-72
2021/10/25 11:52:59;;;;;;;8.60;2.73;;;18.30;57.60;;;;;;5093375;28;20820;-72
2021/10/25 11:55:28;;;;;;;2.83;2.60;;;18.70;56.50;;;;;;5093155;28;20489;-72
2021/10/25 11:57:57;;;;;;;6.00;2.37;;;18.90;56.00;;;;;;5092758;28;20443;-72
2021/10/25 12:00:27;;;;;;;4.47;2.83;;;19.10;55.50;;;;;;5093521;28;20468;-72
2021/10/25 12:02:56;;;;;;;4.03;2.77;;;19.10;55.10;;;;;;5095547;28;20449;-72
2021/10/25 12:05:26;;;;;;;7.00;3.27;;;19.00;54.30;;;;;;5096654;28;20475;-72
2021/10/25 12:07:56;;;;;;;5.97;3.20;;;18.80;54.20;;;;;;5096924;28;20473;-72
2021/10/25 12:10:26;;;;;;;4.23;2.93;;;18.60;54.70;;;;;;5096535;28;20520;-72
2021/10/25 12:12:54;;;;;;;3.10;2.70;;;18.50;55.00;;;;;;5096599;28;20444;-72
2021/10/25 12:15:24;;;;;;;4.10;2.50;;;18.30;55.60;;;;;;5096354;28;20471;-72
2021/10/25 12:17:55;;;;;;;5.23;2.50;;;18.20;56.80;;;;;;5096541;28;20493;-72
2021/10/25 12:20:26;;;;;;;5.00;2.60;;;18.10;57.10;;;;;;5096328;28;20464;-72
2021/10/25 12:23:03;;;;;;;3.87;2.47;;;18.00;56.90;;;;;;5096273;28;20451;-72
2021/10/25 12:25:31;;;;;;;2.67;2.20;;;18.00;57.10;;;;;;5096412;28;20431;-72
2021/10/25 12:28:00;;;;;;;3.60;2.33;;;17.90;57.30;;;;;;5096266;28;20481;-72
2021/10/25 12:30:28;;;;;;;5.30;2.77;;;17.90;57.40;;;;;;5095774;28;20558;-72
2021/10/25 12:32:57;;;;;;;4.20;2.33;;;18.00;57.40;;;;;;5096208;28;20455;-72
2021/10/25 12:35:37;;;;;;;4.70;2.40;;;18.00;57.40;;;;;;5096049;28;20482;-72
2021/10/25 12:38:06;;;;;;;5.27;2.47;;;18.00;57.50;;;;;;5095948;28;20937;-72
2021/10/25 12:40:39;;;;;;;4.93;2.07;;;18.10;57.30;;;;;;5095864;28;20464;-72
2021/10/25 12:43:06;;;;;;;7.70;2.43;;;18.30;57.40;;;;;;5095946;28;20489;-72
2021/10/25 12:45:39;;;;;;;7.10;2.57;;;18.30;57.70;;;;;;5095844;28;20446;-72
2021/10/25 12:48:07;;;;;;;6.30;2.60;;;18.30;56.70;;;;;;5095924;28;20827;-72
2021/10/25 12:50:37;;;;;;;4.70;2.60;;;18.20;56.50;;;;;;5095659;28;20464;-72
2021/10/25 12:53:08;;;;;;;5.20;2.70;;;18.00;57.10;;;;;;5095445;28;20428;-72
2021/10/25 12:55:36;;;;;;;5.90;2.37;;;17.80;57.60;;;;;;5095607;28;20480;-72
2021/10/25 12:58:08;;;;;;;3.70;2.20;;;17.60;58.50;;;;;;5095606;28;20466;-72
2021/10/25 13:00:35;;;;;;;5.43;2.40;;;17.50;57.80;;;;;;5096336;28;20521;-73
2021/10/25 13:03:08;;;;;;;10.17;2.63;;;17.30;56.50;;;;;;5095861;28;20443;-73
2021/10/25 13:05:37;;;;;;;5.00;2.17;;;17.20;56.60;;;;;;5096413;28;20428;-73
2021/10/25 13:08:07;;;;;;;2.33;2.07;;;17.10;56.60;;;;;;5095738;28;20478;-73
2021/10/25 13:10:37;;;;;;;3.13;2.00;;;17.00;57.10;;;;;;5095886;28;20472;-72
2021/10/25 13:13:07;;;;;;;4.27;1.90;;;16.90;57.80;;;;;;5095839;28;20428;-72
2021/10/25 13:15:34;;;;;;;3.27;2.13;;;16.90;57.90;;;;;;5094909;28;20475;-73
2021/10/25 13:18:02;;;;;;;4.83;2.00;;;16.90;57.90;;;;;;5095573;28;20452;-73
2021/10/25 13:20:33;;;;;;;2.93;2.57;;;16.80;57.30;;;;;;5095625;28;20872;-72
2021/10/25 13:23:03;;;;;;;4.23;1.80;;;16.80;58.00;;;;;;5095437;28;20887;-72
2021/10/25 13:25:31;;;;;;;3.53;1.90;;;16.80;57.90;;;;;;5095175;28;20922;-72
2021/10/25 13:27:59;;;;;;;7.07;2.90;;;16.80;58.20;;;;;;5095580;28;20432;-73
2021/10/25 13:30:27;;;;;;;7.63;2.97;;;16.80;58.90;;;;;;5095170;28;20471;-72
2021/10/25 13:33:07;;;;;;;4.10;2.30;;;16.80;58.30;;;;;;5095185;28;20428;-71
2021/10/25 13:35:37;;;;;;;6.93;2.60;;;16.90;58.70;;;;;;5094337;28;20463;-70
2021/10/25 13:38:12;;;;;;;8.30;3.43;;;16.80;58.70;;;;;;5094819;28;20459;-71
2021/10/25 13:40:45;;;;;;;10.27;2.80;;;16.90;58.70;;;;;;5094795;28;20474;-71
2021/10/25 13:43:12;;;;;;;5.67;3.70;;;17.00;59.30;;;;;;5094915;28;20511;-71
2021/10/25 13:45:38;;;;;;;3.60;2.83;;;17.00;58.90;;;;;;5094774;28;20443;-71
2021/10/25 13:48:06;;;;;;;4.47;3.40;;;17.10;59.10;;;;;;5094419;28;20530;-71
2021/10/25 13:50:32;;;;;;;4.70;2.83;;;17.10;59.00;;;;;;5094621;28;20830;-71
2021/10/25 13:53:00;;;;;;;3.63;2.80;;;17.10;59.00;;;;;;5094300;28;20454;-71
2021/10/25 13:55:29;;;;;;;5.20;2.80;;;17.10;58.50;;;;;;5094598;28;20484;-71
2021/10/25 13:57:56;;;;;;;3.93;2.90;;;17.00;58.30;;;;;;5094676;28;20428;-71
2021/10/25 14:00:23;;;;;;;4.53;3.53;;;17.00;58.90;;;;;;5094584;28;20463;-72
2021/10/25 14:02:53;;;;;;;6.73;2.40;;;17.00;59.20;;;;;;5094809;28;20432;-71
2021/10/25 14:05:20;;;;;;;2.73;1.60;;;16.90;58.10;;;;;;5094688;28;20432;-72
2021/10/25 14:07:48;;;;;;;5.90;1.70;;;16.80;59.30;;;;;;5094441;28;20538;-71
2021/10/25 14:10:19;;;;;;;5.00;2.10;;;16.60;59.60;;;;;;5094207;28;20468;-72